Boystown, Nebraska
Current Conditions -  °F | °C
As of 4:35 PM on Sunday 23 Nov 2014 (Local Time) from KMLE Reporting Station
Overcast Overcast  
Wind Chill: 39°   Ceiling: 7500
Heat Index: 45°   Visibility: 10mi
Dew Point: 34°   Wind: 13mph
Humidity: 65%   Direction: 330°NNW
Pressure: 29.51"   Gusts: 24mph
Location:  41.259°N, 96.1267°W
Report Text: KMLE 232235Z AUTO 33011G21KT 10SM OVC075 07/01 A2951 RMK AO2 T00720011
Loading
Personal Weather Stations






























Interactive Weather Map New forecast layout! Learn more

10-Day Weather Forecast

Advertisements
Track Severe Weather on mobile